Time;durP1;ratioP1;P1;durP2;ratioP2;P2;SDS_P1;SDS_P2;PMS_P1;PMS_P2;Temp;Humidity;BMP_temperature;BMP_pressure;BME280_temperature;BME280_humidity;BME280_pressure;Samples;Min_cycle;Max_cycle;Signal;HPM_P1;HPM_P2
2023/01/23 00:02:00;;;;;;;15.02;9.00;;;-1.10;99.90;;;;;;5075030;28;20486;-83
2023/01/23 00:04:26;;;;;;;19.50;9.23;;;-1.00;99.90;;;;;;5074765;28;20024;-83
2023/01/23 00:06:51;;;;;;;16.58;8.70;;;-1.00;99.90;;;;;;5075118;28;20483;-82
2023/01/23 00:09:17;;;;;;;17.25;8.60;;;-1.00;99.90;;;;;;5074775;28;20020;-83
2023/01/23 00:11:43;;;;;;;18.90;9.35;;;-1.00;99.90;;;;;;5074636;28;20031;-83
2023/01/23 00:14:09;;;;;;;17.92;9.38;;;-1.00;99.90;;;;;;5073994;28;20032;-83
2023/01/23 00:16:35;;;;;;;19.52;8.95;;;-1.10;99.90;;;;;;5074610;28;20122;-83
2023/01/23 00:19:01;;;;;;;19.10;9.07;;;-1.10;99.90;;;;;;5074678;28;20130;-83
2023/01/23 00:21:28;;;;;;;15.52;8.40;;;-1.20;99.90;;;;;;5074479;28;20141;-83
2023/01/23 00:24:01;;;;;;;15.18;7.90;;;-1.30;99.90;;;;;;5074432;28;20047;-83
2023/01/23 00:26:28;;;;;;;18.73;8.73;;;-1.50;99.90;;;;;;5074579;28;20027;-84
2023/01/23 00:28:54;;;;;;;16.52;7.85;;;-1.50;99.90;;;;;;5074656;28;20028;-83
2023/01/23 00:31:26;;;;;;;17.27;8.68;;;-1.50;99.90;;;;;;5091343;28;20035;-83
2023/01/23 00:33:56;;;;;;;;;;;-1.50;99.90;;;;;;5084439;28;20039;-83
2023/01/23 00:36:23;;;;;;;15.63;7.28;;;-1.40;99.90;;;;;;5090527;28;19908;-83
2023/01/23 00:38:48;;;;;;;17.20;8.55;;;-1.40;99.90;;;;;;5091041;28;20036;-83
2023/01/23 00:41:14;;;;;;;17.75;8.88;;;-1.40;99.90;;;;;;5090990;28;20514;-83
2023/01/23 00:43:40;;;;;;;19.80;9.40;;;-1.40;99.90;;;;;;5073930;28;20032;-83
2023/01/23 00:46:06;;;;;;;20.42;9.93;;;-1.30;99.90;;;;;;5074046;28;20024;-83
2023/01/23 00:48:32;;;;;;;18.55;9.90;;;-1.30;99.90;;;;;;5074734;28;20166;-83
2023/01/23 00:50:58;;;;;;;18.65;9.77;;;-1.20;99.90;;;;;;5094007;28;20032;-83
2023/01/23 00:53:23;;;;;;;19.35;9.68;;;-1.20;99.90;;;;;;5069061;28;20084;-83
2023/01/23 00:55:49;;;;;;;17.83;8.82;;;-1.20;99.90;;;;;;5078673;28;20035;-83
2023/01/23 00:58:15;;;;;;;22.85;11.40;;;-1.20;99.90;;;;;;5096857;28;20039;-83
2023/01/23 01:00:41;;;;;;;22.23;11.15;;;-1.10;99.90;;;;;;5077206;28;20109;-83
2023/01/23 01:03:07;;;;;;;22.02;10.57;;;-1.10;99.90;;;;;;5078214;28;20378;-83
2023/01/23 01:05:34;;;;;;;22.20;11.43;;;-1.10;99.90;;;;;;5078253;28;20027;-83
2023/01/23 01:08:01;;;;;;;24.23;11.73;;;-1.10;99.90;;;;;;5078253;28;20024;-83
2023/01/23 01:10:28;;;;;;;22.17;11.13;;;-1.10;99.90;;;;;;5094717;28;20475;-83
2023/01/23 01:12:57;;;;;;;22.92;11.43;;;-1.00;99.90;;;;;;5077907;28;20020;-83
2023/01/23 01:15:30;;;;;;;22.25;11.55;;;-1.10;99.90;;;;;;5094641;28;20035;-83
2023/01/23 01:17:57;;;;;;;22.67;11.65;;;-1.00;99.90;;;;;;5078003;28;20028;-83
2023/01/23 01:20:24;;;;;;;28.42;11.57;;;-1.00;99.90;;;;;;5077665;28;20042;-83
2023/01/23 01:22:55;;;;;;;20.73;10.38;;;-1.00;99.90;;;;;;5094759;28;20028;-83
2023/01/23 01:25:21;;;;;;;22.27;11.23;;;-1.00;99.90;;;;;;5070971;28;20696;-83
2023/01/23 01:27:47;;;;;;;22.08;10.02;;;-1.10;99.90;;;;;;5077231;28;20047;-83
2023/01/23 01:30:13;;;;;;;26.00;12.00;;;-1.10;99.90;;;;;;5077332;28;20078;-83
2023/01/23 01:32:40;;;;;;;23.80;11.90;;;-1.10;99.90;;;;;;5077047;28;20052;-83
2023/01/23 01:35:07;;;;;;;21.17;10.50;;;-1.20;99.90;;;;;;5077700;28;20077;-83
2023/01/23 01:37:37;;;;;;;27.50;12.75;;;-1.10;99.90;;;;;;5077503;28;20141;-83
2023/01/23 01:40:08;;;;;;;24.90;12.70;;;-1.10;99.90;;;;;;5094325;28;20074;-83
2023/01/23 01:42:43;;;;;;;25.30;11.70;;;-1.10;99.90;;;;;;5092218;28;20082;-83
2023/01/23 01:45:47;;;;;;;27.85;12.85;;;-1.10;99.90;;;;;;5075734;28;20059;-83
2023/01/23 01:48:14;;;;;;;26.45;11.23;;;-1.10;99.90;;;;;;5076385;28;20726;-83
2023/01/23 01:50:40;;;;;;;23.88;10.95;;;-1.10;99.90;;;;;;5076461;28;20123;-83
2023/01/23 01:53:05;;;;;;;26.50;11.48;;;-1.10;99.90;;;;;;5093215;28;20527;-83
2023/01/23 01:55:31;;;;;;;25.98;11.98;;;-1.10;99.90;;;;;;5076667;28;20418;-83
2023/01/23 01:57:57;;;;;;;21.85;11.02;;;-1.10;99.90;;;;;;5076537;28;20034;-83
2023/01/23 02:00:23;;;;;;;24.90;11.57;;;-1.10;99.90;;;;;;5076167;28;20024;-83
2023/01/23 02:02:54;;;;;;;23.42;11.00;;;-1.10;99.90;;;;;;5076799;28;20030;-83
2023/01/23 02:05:33;;;;;;;27.08;11.85;;;-1.10;99.90;;;;;;5094143;28;20031;-83
2023/01/23 02:08:44;;;;;;;30.88;12.45;;;-1.10;99.90;;;;;;5077249;28;20024;-83
2023/01/23 02:11:22;;;;;;;23.58;11.02;;;-1.10;99.90;;;;;;5055512;28;20040;-83
2023/01/23 02:13:48;;;;;;;27.23;11.52;;;-1.10;99.90;;;;;;5076610;28;20020;-83
2023/01/23 02:16:18;;;;;;;24.95;11.27;;;-1.10;99.90;;;;;;5076728;28;20369;-83
2023/01/23 02:18:47;;;;;;;24.50;11.85;;;-1.10;99.90;;;;;;5077279;28;20035;-83
2023/01/23 02:21:16;;;;;;;30.45;12.80;;;-1.10;99.90;;;;;;5076343;28;20020;-83
2023/01/23 02:23:45;;;;;;;30.40;12.85;;;-1.10;99.90;;;;;;5076126;28;20031;-83
2023/01/23 02:26:23;;;;;;;25.73;11.73;;;-1.10;99.90;;;;;;5093251;28;20048;-83
2023/01/23 02:28:52;;;;;;;27.77;12.00;;;-1.10;99.90;;;;;;5076723;28;20028;-83
2023/01/23 02:31:21;;;;;;;28.25;13.50;;;-1.10;99.90;;;;;;5077070;28;20034;-83
2023/01/23 02:33:49;;;;;;;24.85;11.68;;;-1.10;99.90;;;;;;5093190;28;20081;-83
2023/01/23 02:36:18;;;;;;;28.17;12.88;;;-1.10;99.90;;;;;;5076795;28;20024;-83
2023/01/23 02:39:05;;;;;;;29.73;12.18;;;-1.10;99.90;;;;;;5076862;28;20051;-83
2023/01/23 02:41:35;;;;;;;28.80;13.10;;;-1.10;99.90;;;;;;5076596;28;20792;-83
2023/01/23 02:44:08;;;;;;;29.20;12.52;;;-1.10;99.90;;;;;;5076543;28;20656;-83
2023/01/23 02:46:34;;;;;;;30.55;13.38;;;-1.10;99.90;;;;;;5076446;28;20050;-83
2023/01/23 02:48:59;;;;;;;30.80;13.23;;;-1.20;99.90;;;;;;5076601;28;20044;-83
2023/01/23 02:51:25;;;;;;;33.13;13.98;;;-1.10;99.90;;;;;;5076654;28;20020;-83
2023/01/23 02:53:51;;;;;;;26.58;12.18;;;-1.10;99.90;;;;;;5076064;28;20089;-83
2023/01/23 02:56:17;;;;;;;31.23;13.25;;;-1.20;99.90;;;;;;5092648;28;20051;-83
2023/01/23 03:01:27;;;;;;;30.92;12.85;;;-1.20;99.90;;;;;;5092753;28;20081;-83
2023/01/23 03:03:56;;;;;;;29.38;13.50;;;-1.20;99.90;;;;;;5092550;28;20024;-83
2023/01/23 03:06:23;;;;;;;31.17;14.82;;;-1.20;99.90;;;;;;5092788;28;20035;-83
2023/01/23 03:08:49;;;;;;;44.95;20.40;;;-1.30;99.90;;;;;;5092937;28;20478;-83
2023/01/23 03:11:17;;;;;;;41.33;19.27;;;-1.20;99.90;;;;;;5075873;28;20035;-83
2023/01/23 03:13:44;;;;;;;37.88;17.15;;;-1.30;99.90;;;;;;5075577;28;20059;-83
2023/01/23 03:16:10;;;;;;;32.40;15.00;;;-1.20;99.90;;;;;;5075270;28;20042;-83
2023/01/23 03:18:37;;;;;;;31.58;13.73;;;-1.30;99.90;;;;;;5075476;28;20024;-83
2023/01/23 03:21:04;;;;;;;33.92;14.60;;;-1.20;99.90;;;;;;5091502;28;20799;-84
2023/01/23 03:23:30;;;;;;;31.85;13.82;;;-1.20;99.90;;;;;;5075412;28;20111;-83
2023/01/23 03:25:59;;;;;;;27.60;12.85;;;-1.30;99.90;;;;;;5075383;28;20051;-83
2023/01/23 03:31:14;;;;;;;33.35;14.35;;;-1.20;99.90;;;;;;5086735;28;20031;-84
2023/01/23 03:33:42;;;;;;;32.00;14.38;;;-1.20;99.90;;;;;;5075300;28;20088;-83
2023/01/23 03:36:27;;;;;;;31.20;13.55;;;-1.20;99.90;;;;;;5075438;28;20041;-83
2023/01/23 03:41:40;;;;;;;32.63;13.85;;;-1.20;99.90;;;;;;5092143;28;20035;-83
2023/01/23 03:44:08;;;;;;;34.28;14.75;;;-1.20;99.90;;;;;;5092038;28;20028;-83
2023/01/23 03:46:34;;;;;;;32.20;13.77;;;-1.20;99.90;;;;;;5075119;28;20073;-83
2023/01/23 03:49:00;;;;;;;31.50;14.27;;;-1.20;99.90;;;;;;5091796;28;20027;-83
2023/01/23 03:51:26;;;;;;;28.92;13.52;;;-1.20;99.90;;;;;;5074994;28;20399;-83
2023/01/23 03:53:52;;;;;;;31.15;12.85;;;-1.30;99.90;;;;;;5075277;28;20102;-83
2023/01/23 03:56:18;;;;;;;34.17;13.75;;;-1.20;99.90;;;;;;5075179;28;20028;-84
2023/01/23 03:58:44;;;;;;;30.60;13.50;;;-1.20;99.90;;;;;;5074907;28;20094;-83
2023/01/23 04:01:12;;;;;;;30.75;12.73;;;-1.20;99.90;;;;;;5091357;28;20678;-83
2023/01/23 04:03:41;;;;;;;32.20;13.88;;;-1.30;99.90;;;;;;5075254;28;20032;-83
2023/01/23 04:06:06;;;;;;;36.80;13.68;;;-1.30;99.90;;;;;;5074057;28;20373;-83
2023/01/23 04:08:33;;;;;;;38.33;16.20;;;-1.20;99.90;;;;;;5074036;28;20028;-83
2023/01/23 04:11:07;;;;;;;37.58;14.52;;;-1.20;99.90;;;;;;5074565;28;20438;-83
2023/01/23 04:13:34;;;;;;;38.30;16.20;;;-1.20;99.90;;;;;;5074422;28;20032;-84
2023/01/23 04:16:00;;;;;;;33.92;15.60;;;-1.20;99.90;;;;;;5091572;28;20024;-83
2023/01/23 04:18:26;;;;;;;31.33;13.57;;;-1.20;99.90;;;;;;5074910;28;20111;-83
2023/01/23 04:20:52;;;;;;;28.40;13.80;;;-1.20;99.90;;;;;;5091402;28;20914;-84
2023/01/23 04:23:18;;;;;;;35.25;14.38;;;-1.20;99.90;;;;;;5073912;28;20065;-84
2023/01/23 04:25:47;;;;;;;31.40;14.57;;;-1.20;99.90;;;;;;5074250;28;20028;-83
2023/01/23 04:28:14;;;;;;;33.10;12.45;;;-1.20;99.90;;;;;;5075294;28;20120;-83
2023/01/23 04:30:40;;;;;;;36.63;15.80;;;-1.20;99.90;;;;;;5074672;28;20032;-83
2023/01/23 04:33:14;;;;;;;35.10;14.75;;;-1.30;99.90;;;;;;5075956;28;20426;-83
2023/01/23 04:35:57;;;;;;;38.42;16.42;;;-1.30;99.90;;;;;;5075021;28;20035;-83
2023/01/23 04:38:26;;;;;;;35.58;14.95;;;-1.30;99.90;;;;;;5074990;28;20024;-83
2023/01/23 04:40:52;;;;;;;28.13;14.43;;;-1.20;99.90;;;;;;5074521;28;20124;-83
2023/01/23 04:43:18;;;;;;;34.70;14.40;;;-1.20;99.90;;;;;;5074731;28;20059;-84
2023/01/23 04:45:54;;;;;;;36.33;15.17;;;-1.20;99.90;;;;;;5075432;28;20431;-83
2023/01/23 04:48:44;;;;;;;33.67;13.75;;;-1.20;99.90;;;;;;5078128;28;20463;-83
2023/01/23 04:51:11;;;;;;;36.28;15.50;;;-1.20;99.90;;;;;;5074399;28;20020;-83
2023/01/23 04:53:37;;;;;;;39.17;16.05;;;-1.30;99.90;;;;;;5091301;28;20032;-84
2023/01/23 04:56:03;;;;;;;30.75;14.40;;;-1.20;99.90;;;;;;5073781;28;20028;-84
2023/01/23 04:58:29;;;;;;;31.90;13.48;;;-1.30;99.90;;;;;;5074300;28;20085;-83
2023/01/23 05:01:05;;;;;;;30.00;13.48;;;-1.30;99.90;;;;;;5074024;28;20058;-83
2023/01/23 05:03:33;;;;;;;29.20;12.27;;;-1.30;99.90;;;;;;5067061;28;20024;-83
2023/01/23 05:05:59;;;;;;;28.95;13.73;;;-1.30;99.90;;;;;;5085897;28;20110;-83
2023/01/23 05:08:25;;;;;;;30.25;12.57;;;-1.30;99.90;;;;;;5074215;28;20092;-83
2023/01/23 05:11:04;;;;;;;32.00;13.70;;;-1.30;99.90;;;;;;5076473;28;20032;-83
2023/01/23 05:13:31;;;;;;;30.75;13.55;;;-1.30;99.90;;;;;;5074281;28;20024;-84
2023/01/23 05:15:57;;;;;;;37.28;13.23;;;-1.30;99.90;;;;;;5074470;28;20471;-83
2023/01/23 05:18:22;;;;;;;32.05;14.77;;;-1.30;99.90;;;;;;5074100;28;20024;-84
2023/01/23 05:20:48;;;;;;;31.27;14.38;;;-1.30;99.90;;;;;;5073491;28;20027;-83
2023/01/23 05:23:14;;;;;;;31.67;12.80;;;-1.30;99.90;;;;;;5073671;28;20442;-83
2023/01/23 05:25:48;;;;;;;32.63;13.75;;;-1.20;99.90;;;;;;5074841;28;20027;-84
2023/01/23 05:28:13;;;;;;;36.08;13.50;;;-1.30;99.90;;;;;;5073858;28;20471;-83
2023/01/23 05:30:45;;;;;;;32.47;15.00;;;-1.20;99.90;;;;;;5090898;28;20028;-83
2023/01/23 05:33:21;;;;;;;32.00;14.23;;;-1.20;99.90;;;;;;5075476;28;20085;-83
2023/01/23 05:35:46;;;;;;;35.75;13.95;;;-1.30;99.90;;;;;;5091622;28;20036;-83
2023/01/23 05:38:12;;;;;;;43.90;16.63;;;-1.20;99.90;;;;;;5077396;28;20494;-83
2023/01/23 05:40:38;;;;;;;39.35;16.80;;;-1.20;99.90;;;;;;5077365;28;20031;-83
2023/01/23 05:43:14;;;;;;;43.22;16.85;;;-1.30;99.90;;;;;;5093805;28;20498;-83
2023/01/23 05:46:16;;;;;;;42.97;16.27;;;-1.20;99.90;;;;;;5082516;28;20111;-83
2023/01/23 05:48:49;;;;;;;33.05;14.20;;;-1.20;99.90;;;;;;5092494;28;20503;-83
2023/01/23 05:51:16;;;;;;;33.60;14.05;;;-1.30;99.90;;;;;;5077076;28;20077;-83
2023/01/23 05:53:43;;;;;;;38.80;15.00;;;-1.30;99.90;;;;;;5076828;28;20032;-83
2023/01/23 05:56:11;;;;;;;33.97;14.55;;;-1.30;99.90;;;;;;5077083;28;20039;-83
2023/01/23 05:58:56;;;;;;;35.13;14.43;;;-1.30;99.90;;;;;;5095210;28;20040;-83
2023/01/23 06:01:32;;;;;;;29.83;13.32;;;-1.20;99.90;;;;;;5078383;28;20031;-83
2023/01/23 06:04:24;;;;;;;31.65;13.60;;;-1.30;99.90;;;;;;5094225;28;20024;-83
2023/01/23 06:07:12;;;;;;;37.33;14.02;;;-1.20;99.90;;;;;;5086404;28;20027;-83
2023/01/23 06:09:38;;;;;;;40.10;15.30;;;-1.20;99.90;;;;;;5077203;28;20483;-84
2023/01/23 06:12:04;;;;;;;34.50;14.95;;;-1.20;99.90;;;;;;5085720;28;20024;-83
2023/01/23 06:14:30;;;;;;;41.97;15.20;;;-1.20;99.90;;;;;;5076960;28;20031;-83
2023/01/23 06:16:55;;;;;;;40.72;16.75;;;-1.20;99.90;;;;;;5076961;28;20655;-83
2023/01/23 06:19:21;;;;;;;41.28;16.02;;;-1.20;99.90;;;;;;5093361;28;20130;-83
2023/01/23 06:21:48;;;;;;;43.45;17.85;;;-1.20;99.90;;;;;;5076855;28;20081;-83
2023/01/23 06:24:13;;;;;;;48.17;17.77;;;-1.20;99.90;;;;;;5076750;28;20015;-84
2023/01/23 06:26:39;;;;;;;38.53;16.35;;;-1.20;99.90;;;;;;5076733;28;20870;-83
2023/01/23 06:29:05;;;;;;;35.22;16.10;;;-1.20;99.90;;;;;;5076316;28;20066;-83
2023/01/23 06:31:31;;;;;;;36.67;17.05;;;-1.30;99.90;;;;;;5093073;28;20051;-83
2023/01/23 06:33:59;;;;;;;43.70;18.10;;;-1.20;99.90;;;;;;5076595;28;20052;-84
2023/01/23 06:36:30;;;;;;;43.88;17.10;;;-1.30;99.90;;;;;;5077883;28;20024;-83
2023/01/23 06:38:56;;;;;;;41.15;17.63;;;-1.30;99.90;;;;;;5076456;28;20085;-83
2023/01/23 06:41:39;;;;;;;48.45;18.05;;;-1.30;99.90;;;;;;5076628;28;20106;-83
2023/01/23 06:44:06;;;;;;;43.90;18.98;;;-1.20;99.90;;;;;;5068344;28;20032;-83
2023/01/23 06:46:32;;;;;;;48.55;18.42;;;-1.20;99.90;;;;;;5075616;28;20535;-83
2023/01/23 06:48:58;;;;;;;50.88;18.48;;;-1.20;99.90;;;;;;5092909;28;20035;-83
2023/01/23 06:51:27;;;;;;;47.45;18.50;;;-1.10;99.90;;;;;;5076918;28;20119;-83
2023/01/23 06:53:52;;;;;;;47.42;18.60;;;-1.10;99.90;;;;;;5077528;28;20536;-83
2023/01/23 06:56:20;;;;;;;48.40;19.20;;;-1.10;99.90;;;;;;5073051;28;20025;-83
2023/01/23 06:58:48;;;;;;;47.40;18.33;;;-1.10;99.90;;;;;;5066704;28;20059;-83
2023/01/23 07:01:29;;;;;;;58.97;21.23;;;-1.10;99.90;;;;;;5073419;28;20066;-83
2023/01/23 07:04:13;;;;;;;58.33;21.35;;;-1.00;99.90;;;;;;5084310;28;20039;-83
2023/01/23 07:06:41;;;;;;;64.85;22.83;;;-1.10;99.90;;;;;;5085933;28;20529;-83
2023/01/23 07:09:08;;;;;;;56.35;20.42;;;-1.00;99.90;;;;;;5067675;28;20073;-83
2023/01/23 07:11:36;;;;;;;49.22;19.35;;;-1.00;99.90;;;;;;5088009;28;20082;-85
2023/01/23 07:14:02;;;;;;;55.45;19.52;;;-1.10;99.90;;;;;;5070493;28;20032;-85
2023/01/23 07:16:30;;;;;;;53.58;19.83;;;-1.10;99.90;;;;;;5085246;28;20537;-85
2023/01/23 07:19:00;;;;;;;54.67;20.10;;;-1.00;99.90;;;;;;5067986;28;20028;-85
2023/01/23 07:21:30;;;;;;;59.33;21.17;;;-1.00;99.90;;;;;;5083071;28;20036;-84
2023/01/23 07:23:56;;;;;;;65.22;22.50;;;-1.10;99.90;;;;;;5067162;28;20119;-85
2023/01/23 07:26:22;;;;;;;58.95;20.88;;;-1.00;99.90;;;;;;5085082;28;20460;-85
2023/01/23 07:28:48;;;;;;;56.22;20.63;;;-1.00;99.90;;;;;;5080622;28;20062;-85
2023/01/23 07:31:13;;;;;;;56.45;22.42;;;-1.00;99.90;;;;;;5058445;28;20074;-84
2023/01/23 07:33:39;;;;;;;48.67;20.08;;;-0.90;99.90;;;;;;5054941;28;20118;-85
2023/01/23 07:36:06;;;;;;;45.60;18.63;;;-1.00;99.90;;;;;;5072469;28;20020;-85
2023/01/23 07:38:32;;;;;;;49.97;18.88;;;-0.90;99.90;;;;;;5072254;28;20079;-85
2023/01/23 07:40:58;;;;;;;48.60;19.50;;;-0.90;99.90;;;;;;5072910;28;20494;-85
2023/01/23 07:43:24;;;;;;;55.42;21.70;;;-0.90;99.90;;;;;;5074475;28;20031;-85
2023/01/23 07:45:50;;;;;;;50.95;21.20;;;-0.80;99.90;;;;;;5072893;28;20028;-85
2023/01/23 07:48:16;;;;;;;65.85;26.17;;;-0.80;99.90;;;;;;5072307;28;20025;-85
2023/01/23 07:50:42;;;;;;;39.00;17.88;;;-0.80;99.90;;;;;;5071610;28;20066;-85
2023/01/23 07:53:07;;;;;;;42.38;19.10;;;-0.80;99.90;;;;;;5080850;28;20502;-85
2023/01/23 07:55:36;;;;;;;34.95;16.05;;;-0.80;99.90;;;;;;5068686;28;20032;-85
2023/01/23 07:58:02;;;;;;;35.65;15.90;;;-0.80;99.90;;;;;;5084161;28;20032;-85
2023/01/23 08:00:28;;;;;;;39.25;17.45;;;-0.70;99.90;;;;;;5088664;28;20084;-85
2023/01/23 08:02:55;;;;;;;32.45;14.55;;;-0.60;99.90;;;;;;5066465;28;20740;-85
2023/01/23 08:05:21;;;;;;;41.17;17.75;;;-0.60;99.90;;;;;;5087385;28;20024;-86
2023/01/23 08:07:47;;;;;;;32.55;15.13;;;-0.50;99.90;;;;;;5069756;28;20038;-85
2023/01/23 08:10:12;;;;;;;30.63;14.05;;;-0.50;99.90;;;;;;5069148;28;20054;-85
2023/01/23 08:12:39;;;;;;;31.13;13.20;;;-0.50;99.90;;;;;;5085049;28;20443;-85
2023/01/23 08:15:05;;;;;;;30.38;12.48;;;-0.40;99.90;;;;;;5087575;28;20036;-85
2023/01/23 08:17:31;;;;;;;24.30;11.43;;;-0.50;99.90;;;;;;5084831;28;20033;-85
2023/01/23 08:19:56;;;;;;;27.08;12.40;;;-0.50;99.90;;;;;;5068248;28;20050;-85
2023/01/23 08:22:22;;;;;;;27.23;11.77;;;-0.40;99.90;;;;;;5082417;28;20107;-85
2023/01/23 08:24:48;;;;;;;28.88;13.05;;;-0.40;99.90;;;;;;5079558;28;20028;-85
2023/01/23 08:27:13;;;;;;;25.75;10.80;;;-0.40;99.90;;;;;;5063737;28;20445;-85
2023/01/23 08:29:39;;;;;;;24.60;11.45;;;-0.40;99.90;;;;;;5069262;28;20487;-85
2023/01/23 08:32:05;;;;;;;24.95;11.68;;;-0.40;99.90;;;;;;5080127;28;20033;-85
2023/01/23 08:34:30;;;;;;;24.92;11.93;;;-0.50;99.90;;;;;;5084750;28;20033;-85
2023/01/23 08:36:56;;;;;;;23.75;12.05;;;-0.50;99.90;;;;;;5087094;28;20024;-85
2023/01/23 08:39:23;;;;;;;24.10;11.43;;;-0.50;99.90;;;;;;5070218;28;20031;-85
2023/01/23 08:41:49;;;;;;;24.80;11.40;;;-0.60;99.90;;;;;;5074247;28;20029;-85
2023/01/23 08:44:15;;;;;;;28.73;12.85;;;-0.60;99.90;;;;;;5061096;28;20024;-85
2023/01/23 08:46:43;;;;;;;21.77;11.50;;;-0.60;99.90;;;;;;5073896;28;20034;-85
2023/01/23 08:49:08;;;;;;;22.13;11.05;;;-0.50;99.90;;;;;;5076397;28;20020;-85
2023/01/23 08:51:34;;;;;;;22.67;11.68;;;-0.60;99.90;;;;;;5080301;28;20499;-86
2023/01/23 08:54:00;;;;;;;24.08;11.75;;;-0.50;99.90;;;;;;5065267;28;20037;-85
2023/01/23 08:56:26;;;;;;;20.85;10.25;;;-0.40;99.90;;;;;;5088417;28;20770;-85
2023/01/23 08:58:52;;;;;;;25.40;11.65;;;-0.30;99.90;;;;;;5066134;28;20040;-85
2023/01/23 09:01:23;;;;;;;26.63;12.20;;;-0.30;99.90;;;;;;5064949;28;20572;-85
2023/01/23 09:03:49;;;;;;;27.02;13.40;;;-0.30;99.90;;;;;;5082815;28;20059;-84
2023/01/23 09:06:17;;;;;;;24.63;11.25;;;-0.20;99.90;;;;;;5075081;28;20036;-85
2023/01/23 09:08:43;;;;;;;23.33;11.10;;;-0.30;99.90;;;;;;5075431;28;20081;-85
2023/01/23 09:11:10;;;;;;;22.25;10.48;;;-0.20;99.90;;;;;;5077690;28;20551;-84
2023/01/23 09:13:36;;;;;;;19.48;9.95;;;-0.30;99.90;;;;;;5094591;28;20085;-84
2023/01/23 09:16:02;;;;;;;21.52;11.07;;;-0.20;99.90;;;;;;5078171;28;20028;-85
2023/01/23 09:18:28;;;;;;;20.40;11.20;;;-0.10;99.90;;;;;;5078421;28;20380;-85
2023/01/23 09:20:54;;;;;;;23.65;11.93;;;0.00;99.90;;;;;;5078356;28;20050;-85
2023/01/23 09:23:21;;;;;;;28.63;13.05;;;0.10;99.90;;;;;;5078139;28;20023;-85
2023/01/23 09:25:47;;;;;;;30.25;13.45;;;0.10;99.90;;;;;;5095380;28;20106;-86
2023/01/23 09:28:13;;;;;;;33.47;14.32;;;0.10;99.90;;;;;;5077844;28;20480;-84
2023/01/23 09:30:39;;;;;;;27.35;12.23;;;0.10;99.90;;;;;;5077556;28;20434;-85
2023/01/23 09:33:05;;;;;;;30.65;13.40;;;-0.20;99.90;;;;;;5094486;28;20042;-85
2023/01/23 09:35:31;;;;;;;30.30;12.35;;;-0.20;99.90;;;;;;5077678;28;20040;-85
2023/01/23 09:37:59;;;;;;;26.02;13.90;;;-0.10;99.90;;;;;;5077525;28;20429;-85
2023/01/23 09:40:43;;;;;;;29.50;12.55;;;0.10;99.90;;;;;;5077607;28;20046;-85
2023/01/23 09:43:23;;;;;;;24.85;11.60;;;0.20;99.90;;;;;;5077641;28;20478;-85
2023/01/23 09:46:18;;;;;;;24.50;12.30;;;0.00;99.90;;;;;;5077611;28;20069;-85
2023/01/23 09:48:46;;;;;;;22.63;12.18;;;0.00;99.90;;;;;;5076794;28;20036;-85
2023/01/23 09:51:34;;;;;;;23.85;11.38;;;0.20;99.90;;;;;;5076595;28;20070;-85
2023/01/23 09:54:28;;;;;;;23.35;10.98;;;0.30;99.90;;;;;;5093772;28;20082;-85
2023/01/23 09:56:55;;;;;;;24.45;10.85;;;0.40;99.90;;;;;;5077505;28;20051;-85
2023/01/23 09:59:37;;;;;;;22.20;11.80;;;0.40;99.90;;;;;;5077091;28;20043;-85
2023/01/23 10:02:15;;;;;;;26.95;12.45;;;0.30;99.90;;;;;;5075055;28;20036;-85
2023/01/23 10:04:41;;;;;;;25.55;11.73;;;0.40;99.90;;;;;;5093255;28;20559;-85
2023/01/23 10:07:13;;;;;;;25.10;11.90;;;0.50;99.90;;;;;;5076688;28;20078;-85
2023/01/23 10:10:16;;;;;;;21.85;11.45;;;0.30;99.90;;;;;;5094620;28;20035;-85
2023/01/23 10:13:03;;;;;;;22.35;11.27;;;0.40;99.90;;;;;;5076596;28;20032;-85
2023/01/23 10:15:52;;;;;;;28.92;11.80;;;0.70;99.90;;;;;;5077259;28;20040;-85
2023/01/23 10:18:24;;;;;;;23.10;10.73;;;0.90;99.90;;;;;;5077119;28;20360;-85
2023/01/23 10:21:11;;;;;;;27.33;12.30;;;0.90;99.90;;;;;;5076107;28;20502;-85
2023/01/23 10:23:55;;;;;;;21.75;11.27;;;1.00;99.90;;;;;;5076043;28;20127;-85
2023/01/23 10:26:26;;;;;;;23.38;11.80;;;1.00;99.90;;;;;;5076128;28;20115;-84
2023/01/23 10:29:02;;;;;;;27.70;12.50;;;0.90;99.90;;;;;;5093687;28;20047;-85
2023/01/23 10:31:57;;;;;;;20.63;10.60;;;0.90;99.90;;;;;;5076765;28;20068;-85
2023/01/23 10:34:51;;;;;;;21.52;11.10;;;1.00;99.90;;;;;;5088425;28;20035;-85
2023/01/23 10:37:44;;;;;;;26.05;12.32;;;1.00;99.90;;;;;;5091447;28;20745;-85
2023/01/23 10:41:12;;;;;;;24.60;11.40;;;1.20;99.90;;;;;;5076040;28;20032;-85
2023/01/23 10:43:15;;;;;;;17.63;9.93;;;1.40;99.90;;;;;;5076699;28;20043;-85
2023/01/23 10:45:43;;;;;;;21.85;9.75;;;1.50;99.90;;;;;;5058896;28;20544;-85
2023/01/23 10:48:28;;;;;;;26.98;13.18;;;1.20;99.90;;;;;;5087870;28;20025;-84
2023/01/23 10:50:54;;;;;;;20.17;10.50;;;1.00;99.90;;;;;;5067197;28;20078;-84
2023/01/23 10:53:24;;;;;;;23.00;12.15;;;0.70;99.90;;;;;;5078844;28;20044;-84
2023/01/23 10:55:52;;;;;;;19.58;11.20;;;0.70;99.90;;;;;;5092637;28;20031;-85
2023/01/23 10:58:30;;;;;;;23.42;11.52;;;0.90;99.90;;;;;;5066609;28;20383;-85
2023/01/23 11:00:56;;;;;;;21.45;10.63;;;1.10;99.90;;;;;;5088924;28;20036;-85
2023/01/23 11:03:37;;;;;;;23.70;11.45;;;1.20;99.90;;;;;;5068925;28;20605;-84
2023/01/23 11:06:03;;;;;;;24.55;12.02;;;1.10;99.90;;;;;;5076500;28;20020;-85
2023/01/23 11:08:35;;;;;;;22.65;11.20;;;1.20;99.90;;;;;;5082668;28;20037;-85
2023/01/23 11:11:21;;;;;;;20.45;10.70;;;1.40;99.90;;;;;;5087692;28;20126;-85
2023/01/23 11:13:50;;;;;;;17.77;9.73;;;1.40;99.90;;;;;;5069145;28;20115;-85
2023/01/23 11:16:22;;;;;;;24.50;11.00;;;1.50;99.90;;;;;;5069156;28;20044;-84
2023/01/23 11:19:03;;;;;;;24.05;11.27;;;1.40;99.90;;;;;;5062760;28;20396;-85
2023/01/23 11:21:36;;;;;;;20.23;10.67;;;1.50;99.90;;;;;;5065592;28;20035;-85
2023/01/23 11:24:30;;;;;;;20.25;11.15;;;1.50;99.90;;;;;;5066088;28;20025;-85
2023/01/23 11:27:18;;;;;;;22.70;11.00;;;1.50;99.90;;;;;;5078389;28;20032;-85
2023/01/23 11:30:12;;;;;;;28.08;12.38;;;1.70;99.90;;;;;;5081861;28;20110;-85
2023/01/23 11:32:54;;;;;;;27.48;13.60;;;1.90;99.90;;;;;;5104652;28;20656;-85
2023/01/23 11:35:32;;;;;;;26.65;11.43;;;2.10;99.90;;;;;;5108962;28;20078;-85
2023/01/23 11:38:01;;;;;;;23.63;11.18;;;2.00;99.90;;;;;;5105568;28;20032;-85
2023/01/23 11:40:27;;;;;;;20.70;11.40;;;2.00;99.90;;;;;;5091685;28;20086;-85
2023/01/23 11:42:54;;;;;;;21.63;10.48;;;2.20;99.90;;;;;;5074573;28;20016;-85
2023/01/23 11:45:19;;;;;;;20.25;10.60;;;2.30;99.90;;;;;;5074677;28;20119;-85
2023/01/23 11:48:16;;;;;;;24.35;12.20;;;2.20;99.90;;;;;;5092004;28;20112;-85
2023/01/23 11:51:03;;;;;;;26.75;12.65;;;2.10;99.90;;;;;;5090978;28;20034;-85
2023/01/23 11:53:47;;;;;;;23.30;11.25;;;1.80;99.90;;;;;;5074442;28;20506;-85
2023/01/23 11:56:24;;;;;;;24.35;12.40;;;1.40;99.90;;;;;;5079397;28;20039;-85
2023/01/23 11:58:58;;;;;;;21.88;11.32;;;1.30;99.90;;;;;;5087739;28;20063;-84
2023/01/23 12:01:48;;;;;;;21.13;10.88;;;1.40;99.90;;;;;;5055477;28;20614;-86
2023/01/23 12:04:20;;;;;;;23.88;11.80;;;1.50;99.90;;;;;;5090908;28;20032;-85
2023/01/23 12:06:54;;;;;;;22.05;11.43;;;1.80;99.90;;;;;;5076822;28;20126;-85
2023/01/23 12:09:21;;;;;;;22.67;11.02;;;1.60;99.90;;;;;;5075537;28;20118;-85
2023/01/23 12:12:08;;;;;;;19.70;10.20;;;1.60;99.90;;;;;;5075428;28;20497;-85
2023/01/23 12:14:55;;;;;;;22.17;11.13;;;1.70;99.90;;;;;;5075026;28;20047;-85
2023/01/23 12:17:32;;;;;;;20.83;10.48;;;1.80;99.90;;;;;;5075072;28;20028;-85
2023/01/23 12:20:10;;;;;;;18.20;9.68;;;2.00;99.90;;;;;;5075305;28;20024;-85
2023/01/23 12:23:06;;;;;;;26.63;11.57;;;2.20;99.90;;;;;;5075273;28;20114;-84
2023/01/23 12:25:39;;;;;;;20.48;10.93;;;2.10;99.90;;;;;;5081156;28;20702;-85
2023/01/23 12:28:23;;;;;;;24.50;11.23;;;1.90;99.90;;;;;;5076198;28;20036;-85
2023/01/23 12:31:21;;;;;;;22.25;11.55;;;2.00;99.90;;;;;;5075924;28;20031;-85
2023/01/23 12:34:28;;;;;;;23.70;11.75;;;2.00;99.90;;;;;;5091794;28;20429;-85
2023/01/23 12:36:54;;;;;;;16.95;9.45;;;2.10;99.90;;;;;;5091755;28;20263;-85
2023/01/23 12:39:47;;;;;;;27.20;12.30;;;2.00;99.90;;;;;;5074722;28;20111;-85
2023/01/23 12:42:20;;;;;;;23.33;12.20;;;2.00;99.90;;;;;;5075090;28;20028;-85
2023/01/23 12:45:10;;;;;;;21.05;11.73;;;2.00;99.90;;;;;;5084554;28;20029;-85
2023/01/23 12:47:54;;;;;;;21.17;10.40;;;1.90;99.90;;;;;;5100259;27;20028;-86
2023/01/23 12:50:41;;;;;;;20.50;10.35;;;1.80;99.90;;;;;;5070458;28;20055;-85
2023/01/23 12:53:20;;;;;;;20.23;10.93;;;1.70;99.90;;;;;;5082716;28;20106;-85
2023/01/23 12:56:13;;;;;;;22.92;12.23;;;1.60;99.90;;;;;;5085488;28;20036;-85
2023/01/23 12:58:46;;;;;;;24.23;11.82;;;1.70;99.90;;;;;;5069763;28;20062;-84
2023/01/23 13:02:01;;;;;;;21.08;11.13;;;1.70;99.90;;;;;;5090816;28;20039;-85